createdAt,value
2019-03-27T00:01:58.490Z,81.30
2019-03-27T00:04:31.922Z,100.92
2019-03-27T00:07:02.083Z,66.07
2019-03-27T00:09:31.985Z,59.45
2019-03-27T00:12:02.106Z,55.88
2019-03-27T00:14:32.162Z,46.70
2019-03-27T00:17:02.078Z,45.52
2019-03-27T00:19:33.164Z,67.22
2019-03-27T00:22:03.066Z,69.12
2019-03-27T00:24:33.030Z,80.53
2019-03-27T00:27:03.120Z,84.00
2019-03-27T00:29:33.439Z,67.12
2019-03-27T00:32:03.399Z,55.98
2019-03-27T00:34:33.335Z,48.40
2019-03-27T00:37:03.507Z,57.27
2019-03-27T00:39:33.223Z,49.40
2019-03-27T00:42:03.078Z,46.05
2019-03-27T00:44:33.225Z,49.83
2019-03-27T00:47:03.052Z,52.85
2019-03-27T00:49:33.409Z,62.90
2019-03-27T00:52:03.417Z,73.22
2019-03-27T00:54:33.451Z,81.00
2019-03-27T00:57:05.021Z,66.82
2019-03-27T00:59:34.860Z,66.02
2019-03-27T01:02:06.085Z,56.23
2019-03-27T01:04:37.391Z,49.63
2019-03-27T01:07:07.332Z,48.93
2019-03-27T01:09:37.802Z,50.28
2019-03-27T01:12:08.127Z,52.62
2019-03-27T01:14:38.987Z,62.13
2019-03-27T01:17:08.988Z,101.20
2019-03-27T01:19:41.093Z,126.07
2019-03-27T01:22:10.932Z,95.65
2019-03-27T01:24:41.100Z,69.32
2019-03-27T01:27:10.966Z,85.12
2019-03-27T01:29:42.533Z,90.97
2019-03-27T01:32:12.579Z,89.90
2019-03-27T01:34:47.028Z,82.53
2019-03-27T01:37:16.883Z,79.12
2019-03-27T01:39:48.284Z,62.23
2019-03-27T01:42:18.418Z,65.15
2019-03-27T01:44:48.338Z,76.07
2019-03-27T01:47:18.277Z,59.98
2019-03-27T01:49:49.422Z,54.77
2019-03-27T01:52:19.590Z,59.23
2019-03-27T01:54:49.892Z,64.15
2019-03-27T01:57:19.751Z,64.97
2019-03-27T01:59:49.648Z,54.95
2019-03-27T02:02:19.706Z,51.80
2019-03-27T02:04:50.644Z,51.92
2019-03-27T02:07:20.756Z,52.23
2019-03-27T02:09:50.596Z,48.38
2019-03-27T02:12:20.656Z,48.92
2019-03-27T02:14:50.502Z,38.13
2019-03-27T02:17:20.932Z,44.42
2019-03-27T02:19:51.023Z,58.83
2019-03-27T02:22:21.075Z,68.00
2019-03-27T02:24:51.174Z,70.22
2019-03-27T02:27:21.199Z,64.80
2019-03-27T02:29:51.223Z,59.48
2019-03-27T02:32:21.370Z,45.85
2019-03-27T02:34:51.335Z,37.30
2019-03-27T02:37:21.489Z,39.13
2019-03-27T02:39:51.633Z,39.42
2019-03-27T02:42:22.850Z,32.95
2019-03-27T02:44:52.694Z,34.87
2019-03-27T02:47:22.560Z,36.60
2019-03-27T02:49:52.416Z,40.17
2019-03-27T02:52:22.395Z,43.02
2019-03-27T02:54:52.441Z,42.53
2019-03-27T02:57:22.554Z,41.02
2019-03-27T02:59:52.442Z,48.87
2019-03-27T03:02:22.518Z,48.92
2019-03-27T03:04:53.229Z,51.00
2019-03-27T03:07:23.530Z,44.73
2019-03-27T03:09:54.443Z,44.43
2019-03-27T03:12:25.894Z,54.23
2019-03-27T03:14:55.828Z,55.40
2019-03-27T03:17:26.062Z,49.93
2019-03-27T03:19:56.212Z,49.55
2019-03-27T03:22:27.389Z,38.93
2019-03-27T03:24:57.525Z,32.90
2019-03-27T03:27:27.552Z,37.63
2019-03-27T03:29:57.517Z,42.05
2019-03-27T03:32:27.628Z,39.70
2019-03-27T03:34:57.503Z,81.92
2019-03-27T03:37:27.501Z,57.03
2019-03-27T03:39:57.795Z,47.17
2019-03-27T03:42:27.927Z,43.33
2019-03-27T03:44:57.716Z,29.87
2019-03-27T03:47:27.573Z,31.57
2019-03-27T03:49:57.591Z,26.55
2019-03-27T03:52:28.012Z,30.80
2019-03-27T03:55:00.932Z,31.62
2019-03-27T03:57:31.752Z,30.92
2019-03-27T04:00:03.034Z,32.98
2019-03-27T04:02:38.271Z,31.45
2019-03-27T04:05:11.511Z,25.70
2019-03-27T04:07:41.854Z,30.00
2019-03-27T04:10:11.662Z,22.82
2019-03-27T04:12:41.681Z,20.45
2019-03-27T04:15:11.617Z,22.50
2019-03-27T04:17:41.820Z,35.10
2019-03-27T04:20:13.186Z,30.80
2019-03-27T04:22:45.825Z,26.12
2019-03-27T04:25:15.761Z,29.30
2019-03-27T04:27:45.647Z,25.30
2019-03-27T04:30:15.507Z,26.80
2019-03-27T04:32:45.748Z,30.12
2019-03-27T04:35:15.771Z,30.45
2019-03-27T04:37:45.993Z,25.17
2019-03-27T04:40:15.972Z,26.33
2019-03-27T04:42:46.604Z,37.20
2019-03-27T04:45:19.515Z,40.43
2019-03-27T04:47:50.004Z,80.90
2019-03-27T04:50:20.440Z,38.25
2019-03-27T04:52:50.854Z,29.82
2019-03-27T04:55:20.818Z,40.78
2019-03-27T04:57:56.967Z,46.30
2019-03-27T05:00:28.717Z,45.63
2019-03-27T05:02:59.328Z,52.23
2019-03-27T05:05:30.379Z,63.55
2019-03-27T05:08:00.500Z,59.00
2019-03-27T05:10:30.925Z,66.60
2019-03-27T05:13:01.354Z,79.27
2019-03-27T05:15:31.696Z,74.77
2019-03-27T05:18:02.282Z,113.30
2019-03-27T05:20:32.381Z,142.65
2019-03-27T05:23:03.104Z,171.95
2019-03-27T05:25:33.523Z,155.95
2019-03-27T05:28:03.532Z,140.22
2019-03-27T05:30:34.007Z,124.60
2019-03-27T05:33:13.676Z,88.75
2019-03-27T05:35:43.661Z,88.90
2019-03-27T05:38:14.742Z,100.05
2019-03-27T05:40:45.199Z,89.60
2019-03-27T05:43:15.536Z,80.95
2019-03-27T05:45:46.563Z,78.12
2019-03-27T05:48:17.425Z,66.53
2019-03-27T05:50:56.635Z,66.17
2019-03-27T05:53:28.232Z,60.08
2019-03-27T05:55:58.575Z,59.77
2019-03-27T05:58:29.019Z,54.93
2019-03-27T06:00:59.094Z,55.95
2019-03-27T06:03:30.259Z,46.92
2019-03-27T06:06:01.683Z,47.58
2019-03-27T06:08:32.278Z,39.65
2019-03-27T06:11:02.771Z,40.98
2019-03-27T06:13:33.762Z,36.25
2019-03-27T06:16:04.170Z,31.23
2019-03-27T06:18:34.750Z,40.65
2019-03-27T06:21:11.218Z,37.13
2019-03-27T06:23:41.743Z,33.20
2019-03-27T06:26:12.182Z,37.40
2019-03-27T06:28:43.005Z,32.03
2019-03-27T06:31:13.181Z,30.82
2019-03-27T06:33:43.910Z,26.45
2019-03-27T06:36:14.572Z,31.35
2019-03-27T06:38:44.871Z,30.52
2019-03-27T06:41:15.133Z,21.48
2019-03-27T06:43:45.878Z,24.10
2019-03-27T06:46:16.102Z,22.77
2019-03-27T06:48:46.823Z,22.27
2019-03-27T06:51:17.276Z,23.10
2019-03-27T06:53:47.766Z,23.42
2019-03-27T06:56:18.320Z,21.30
2019-03-27T06:58:54.377Z,20.68
2019-03-27T07:01:20.905Z,19.10
2019-03-27T07:03:51.325Z,18.27
2019-03-27T07:06:22.462Z,22.98
2019-03-27T07:08:52.978Z,16.03
2019-03-27T07:11:23.329Z,16.50
2019-03-27T07:13:53.586Z,17.30
2019-03-27T07:16:23.963Z,18.62
2019-03-27T07:18:54.320Z,17.85
2019-03-27T07:21:24.924Z,19.12
2019-03-27T07:23:55.330Z,21.62
2019-03-27T07:26:25.887Z,21.55
2019-03-27T07:29:00.045Z,21.55
2019-03-27T07:31:30.558Z,16.52
2019-03-27T07:34:01.107Z,21.37
2019-03-27T07:36:31.417Z,17.92
2019-03-27T07:39:10.817Z,23.52
2019-03-27T07:44:03.941Z,17.92
2019-03-27T07:46:34.324Z,18.05
2019-03-27T07:49:05.205Z,18.00
2019-03-27T07:51:35.747Z,18.32
2019-03-27T07:54:06.485Z,13.60
2019-03-27T07:56:36.663Z,17.30
2019-03-27T07:59:07.496Z,12.60
2019-03-27T08:01:38.044Z,13.40
2019-03-27T08:04:08.846Z,14.35
2019-03-27T08:06:40.532Z,13.78
2019-03-27T08:09:11.376Z,12.47
2019-03-27T08:11:42.278Z,12.70
2019-03-27T08:14:13.040Z,13.68
2019-03-27T08:16:44.092Z,13.95
2019-03-27T08:19:21.011Z,13.10
2019-03-27T08:21:52.878Z,15.30
2019-03-27T08:24:23.111Z,11.80
2019-03-27T08:26:54.275Z,13.60
2019-03-27T08:29:24.975Z,9.45
2019-03-27T08:31:55.199Z,12.10
2019-03-27T08:34:25.195Z,12.45
2019-03-27T08:36:55.038Z,12.40
2019-03-27T08:39:25.157Z,13.45
2019-03-27T08:41:55.381Z,13.83
2019-03-27T08:44:25.452Z,15.55
2019-03-27T08:46:55.375Z,12.47
2019-03-27T08:49:25.454Z,15.80
2019-03-27T08:51:55.468Z,14.78
2019-03-27T08:54:25.605Z,12.58
2019-03-27T08:56:55.585Z,16.10
2019-03-27T08:59:25.576Z,15.08
2019-03-27T09:01:55.346Z,13.45
2019-03-27T09:04:25.371Z,13.98
2019-03-27T09:06:56.367Z,11.88
2019-03-27T09:09:26.204Z,11.55
2019-03-27T09:11:56.307Z,10.50
2019-03-27T09:14:26.411Z,9.78
2019-03-27T09:16:56.508Z,7.42
2019-03-27T09:19:35.556Z,7.28
2019-03-27T09:24:27.809Z,8.35
2019-03-27T09:26:57.676Z,7.80
2019-03-27T09:29:27.827Z,12.98
2019-03-27T09:31:59.054Z,6.50
2019-03-27T09:34:29.249Z,9.30
2019-03-27T09:36:59.068Z,5.80
2019-03-27T09:39:29.286Z,5.87
2019-03-27T09:41:59.195Z,7.75
2019-03-27T09:44:29.112Z,18.02
2019-03-27T09:46:59.165Z,6.85
2019-03-27T09:49:29.039Z,6.00
2019-03-27T09:51:59.064Z,5.40
2019-03-27T09:54:29.233Z,5.20
2019-03-27T09:56:59.430Z,5.60
2019-03-27T09:59:29.403Z,6.53
2019-03-27T10:02:00.873Z,5.78
2019-03-27T10:04:30.959Z,6.80
2019-03-27T10:07:01.817Z,6.35
2019-03-27T10:09:31.925Z,5.70
2019-03-27T10:12:01.996Z,6.53
2019-03-27T10:14:31.975Z,4.62
2019-03-27T10:17:02.121Z,4.62
2019-03-27T10:19:32.406Z,6.45
2019-03-27T10:22:02.630Z,6.58
2019-03-27T10:24:32.833Z,7.42
2019-03-27T10:27:02.745Z,5.80
2019-03-27T10:29:32.912Z,6.17
2019-03-27T10:32:03.345Z,5.80
2019-03-27T10:34:33.316Z,8.93
2019-03-27T10:37:04.059Z,6.35
2019-03-27T10:39:34.001Z,7.70
2019-03-27T10:42:04.196Z,6.92
2019-03-27T10:44:34.501Z,8.40
2019-03-27T10:47:04.856Z,13.83
2019-03-27T10:49:35.119Z,9.53
2019-03-27T10:52:05.177Z,7.85
2019-03-27T10:54:35.310Z,12.82
2019-03-27T10:57:05.186Z,5.80
2019-03-27T10:59:35.091Z,6.10
2019-03-27T11:02:05.112Z,6.28
2019-03-27T11:04:36.412Z,5.05
2019-03-27T11:07:09.652Z,7.78
2019-03-27T11:09:40.671Z,5.35
2019-03-27T11:12:10.679Z,6.90
2019-03-27T11:14:40.743Z,7.47
2019-03-27T11:17:14.706Z,14.47
2019-03-27T11:19:46.471Z,8.90
2019-03-27T11:22:16.757Z,8.20
2019-03-27T11:24:46.667Z,6.67
2019-03-27T11:27:16.698Z,10.55
2019-03-27T11:29:46.656Z,7.05
2019-03-27T11:32:16.727Z,12.70
2019-03-27T11:34:46.612Z,11.88
2019-03-27T11:37:16.622Z,5.65
2019-03-27T11:39:46.627Z,4.95
2019-03-27T11:42:16.719Z,15.65
2019-03-27T11:44:46.542Z,4.90
2019-03-27T11:47:16.793Z,5.85
2019-03-27T11:49:46.746Z,7.20
2019-03-27T11:52:16.761Z,10.05
2019-03-27T11:54:46.693Z,9.00
2019-03-27T11:57:16.511Z,8.93
2019-03-27T11:59:53.957Z,9.65
2019-03-27T12:02:17.937Z,9.95
2019-03-27T12:04:48.050Z,8.80
2019-03-27T12:07:18.698Z,5.58
2019-03-27T12:09:48.594Z,6.70
2019-03-27T12:12:18.781Z,7.90
2019-03-27T12:14:48.565Z,5.22
2019-03-27T12:17:18.704Z,6.85
2019-03-27T12:19:48.803Z,10.68
2019-03-27T12:22:18.635Z,5.12
2019-03-27T12:24:48.791Z,9.28
2019-03-27T12:27:18.816Z,7.35
2019-03-27T12:29:49.026Z,7.22
2019-03-27T12:32:18.922Z,7.53
2019-03-27T12:34:48.918Z,6.65
2019-03-27T12:37:18.759Z,5.20
2019-03-27T12:39:48.726Z,8.18
2019-03-27T12:42:23.722Z,11.68
2019-03-27T12:45:02.698Z,13.15
2019-03-27T12:47:44.131Z,10.05
2019-03-27T12:50:27.258Z,9.53
2019-03-27T12:53:12.556Z,4.90
2019-03-27T12:55:48.492Z,3.80
2019-03-27T12:58:26.251Z,5.87
2019-03-27T13:01:06.810Z,3.92
2019-03-27T13:03:40.002Z,7.03
2019-03-27T13:06:09.989Z,4.70
2019-03-27T13:08:40.752Z,4.67
2019-03-27T13:11:10.531Z,5.67
2019-03-27T13:13:40.434Z,5.22
2019-03-27T13:16:10.312Z,6.33
2019-03-27T13:18:40.204Z,5.30
2019-03-27T13:21:11.093Z,4.62
2019-03-27T13:23:41.130Z,3.90
2019-03-27T13:26:10.884Z,5.17
2019-03-27T13:28:48.891Z,4.47
2019-03-27T13:31:12.740Z,5.78
2019-03-27T13:33:42.595Z,5.75
2019-03-27T13:36:12.490Z,5.40
2019-03-27T13:38:42.219Z,5.95
2019-03-27T13:41:12.191Z,3.30
2019-03-27T13:43:42.205Z,5.25
2019-03-27T13:46:12.168Z,4.70
2019-03-27T13:48:42.443Z,5.60
2019-03-27T13:51:12.377Z,7.20
2019-03-27T13:53:42.461Z,6.30
2019-03-27T13:56:13.069Z,5.78
2019-03-27T13:58:44.564Z,4.87
2019-03-27T14:01:14.743Z,5.17
2019-03-27T14:03:44.634Z,4.55
2019-03-27T14:06:14.970Z,4.85
2019-03-27T14:08:45.961Z,7.12
2019-03-27T14:11:16.037Z,7.83
2019-03-27T14:13:46.050Z,5.37
2019-03-27T14:16:15.937Z,6.67
2019-03-27T14:18:48.840Z,5.80
2019-03-27T14:21:17.781Z,4.97
2019-03-27T14:23:47.754Z,7.95
2019-03-27T14:26:17.930Z,3.37
2019-03-27T14:28:48.151Z,3.47
2019-03-27T14:31:19.331Z,7.33
2019-03-27T14:33:49.426Z,7.10
2019-03-27T14:36:19.160Z,4.75
2019-03-27T14:38:49.190Z,5.37
2019-03-27T14:41:19.693Z,6.22
2019-03-27T14:43:50.132Z,8.28
2019-03-27T14:46:20.639Z,6.58
2019-03-27T14:48:51.380Z,7.10
2019-03-27T14:51:34.291Z,8.13
2019-03-27T14:54:05.031Z,6.67
2019-03-27T14:56:35.531Z,10.38
2019-03-27T14:59:09.535Z,10.25
2019-03-27T15:01:40.119Z,7.30
2019-03-27T15:04:10.986Z,8.38
2019-03-27T15:06:40.926Z,9.43
2019-03-27T15:09:11.790Z,9.93
2019-03-27T15:11:41.938Z,8.73
2019-03-27T15:14:11.927Z,9.68
2019-03-27T15:16:41.757Z,10.15
2019-03-27T15:19:11.866Z,10.50
2019-03-27T15:21:41.967Z,9.03
2019-03-27T15:24:12.008Z,10.95
2019-03-27T15:26:41.943Z,11.97
2019-03-27T15:29:11.745Z,12.20
2019-03-27T15:31:41.529Z,14.05
2019-03-27T15:34:11.813Z,15.38
2019-03-27T15:36:41.634Z,17.23
2019-03-27T15:39:11.675Z,16.07
2019-03-27T15:41:42.032Z,17.65
2019-03-27T15:44:17.627Z,16.32
2019-03-27T15:46:47.642Z,14.43
2019-03-27T15:49:17.604Z,17.73
2019-03-27T15:51:47.502Z,14.90
2019-03-27T15:54:17.472Z,15.85
2019-03-27T15:56:47.596Z,15.45
2019-03-27T15:59:17.783Z,14.30
2019-03-27T16:01:47.689Z,15.68
2019-03-27T16:04:18.572Z,15.10
2019-03-27T16:06:49.058Z,14.58
2019-03-27T16:09:20.293Z,9.75
2019-03-27T16:11:50.410Z,16.95
2019-03-27T16:14:20.296Z,9.78
2019-03-27T16:17:06.870Z,10.82
2019-03-27T16:19:22.129Z,16.17
2019-03-27T16:21:51.875Z,13.22
2019-03-27T16:24:21.790Z,13.72
2019-03-27T16:27:03.837Z,16.20
2019-03-27T16:29:23.222Z,16.73
2019-03-27T16:31:53.356Z,26.93
2019-03-27T16:34:25.259Z,10.05
2019-03-27T16:36:55.267Z,12.73
2019-03-27T16:39:26.402Z,17.92
2019-03-27T16:41:56.445Z,10.55
2019-03-27T16:44:26.536Z,14.13
2019-03-27T16:46:56.535Z,15.93
2019-03-27T16:49:26.591Z,14.58
2019-03-27T16:51:56.693Z,18.90
2019-03-27T16:54:26.562Z,13.28
2019-03-27T16:56:56.631Z,14.85
2019-03-27T16:59:26.600Z,12.03
2019-03-27T17:01:58.838Z,15.65
2019-03-27T17:04:31.795Z,15.23
2019-03-27T17:07:03.968Z,16.87
2019-03-27T17:09:35.161Z,15.58
2019-03-27T17:12:08.040Z,19.67
2019-03-27T17:14:38.364Z,18.90
2019-03-27T17:17:09.493Z,15.15
2019-03-27T17:19:39.611Z,14.07
2019-03-27T17:22:19.554Z,17.73
2019-03-27T17:24:41.362Z,16.80
2019-03-27T17:27:30.802Z,13.22
2019-03-27T17:30:00.850Z,20.97
2019-03-27T17:32:30.705Z,16.60
2019-03-27T17:35:00.550Z,16.15
2019-03-27T17:37:30.356Z,14.53
2019-03-27T17:40:00.371Z,17.12
2019-03-27T17:42:34.535Z,20.15
2019-03-27T17:45:24.880Z,15.75
2019-03-27T17:47:58.122Z,15.75
2019-03-27T17:50:27.940Z,15.40
2019-03-27T17:52:57.681Z,16.90
2019-03-27T17:55:28.138Z,15.10
2019-03-27T17:57:58.007Z,13.80
2019-03-27T18:00:40.123Z,14.07
2019-03-27T18:03:10.029Z,12.98
2019-03-27T18:05:39.957Z,13.98
2019-03-27T18:08:10.824Z,15.95
2019-03-27T18:10:41.671Z,11.33
2019-03-27T18:13:11.910Z,14.47
2019-03-27T18:15:44.926Z,12.13
2019-03-27T18:18:14.801Z,13.53
2019-03-27T18:20:45.024Z,12.65
2019-03-27T18:23:14.813Z,14.58
2019-03-27T18:25:44.847Z,16.20
2019-03-27T18:28:14.871Z,18.50
2019-03-27T18:30:45.897Z,16.90
2019-03-27T18:33:15.728Z,17.77
2019-03-27T18:35:45.727Z,16.23
2019-03-27T18:38:15.564Z,14.18
2019-03-27T18:40:45.571Z,20.02
2019-03-27T18:43:15.490Z,23.95
2019-03-27T18:45:45.749Z,26.75
2019-03-27T18:48:15.726Z,32.42
2019-03-27T18:50:45.657Z,35.17
2019-03-27T18:53:15.471Z,32.60
2019-03-27T18:55:45.470Z,36.35
2019-03-27T18:58:15.538Z,31.60
2019-03-27T19:00:45.513Z,30.15
2019-03-27T19:03:15.495Z,34.33
2019-03-27T19:05:45.370Z,32.28
2019-03-27T19:08:15.357Z,31.87
2019-03-27T19:10:46.090Z,29.15
2019-03-27T19:13:17.042Z,31.05
2019-03-27T19:15:47.121Z,29.52
2019-03-27T19:18:16.959Z,26.85
2019-03-27T19:20:47.034Z,29.55
2019-03-27T19:23:16.873Z,22.30
2019-03-27T19:25:46.781Z,25.00
2019-03-27T19:28:16.771Z,22.05
2019-03-27T19:30:46.584Z,22.25
2019-03-27T19:33:16.482Z,20.43
2019-03-27T19:35:46.248Z,25.45
2019-03-27T19:38:16.281Z,24.43
2019-03-27T19:40:46.043Z,22.32
2019-03-27T19:43:15.942Z,22.32
2019-03-27T19:45:46.076Z,19.70
2019-03-27T19:48:15.992Z,16.15
2019-03-27T19:50:45.811Z,19.25
2019-03-27T19:53:15.603Z,18.80
2019-03-27T19:55:45.442Z,19.75
2019-03-27T19:58:15.507Z,21.12
2019-03-27T20:00:45.508Z,18.30
2019-03-27T20:03:15.336Z,22.15
2019-03-27T20:05:45.322Z,17.10
2019-03-27T20:08:15.343Z,20.32
2019-03-27T20:10:45.163Z,17.87
2019-03-27T20:13:15.832Z,19.40
2019-03-27T20:15:45.672Z,17.67
2019-03-27T20:18:15.612Z,19.55
2019-03-27T20:20:45.618Z,16.60
2019-03-27T20:23:15.737Z,20.72
2019-03-27T20:25:45.875Z,18.07
2019-03-27T20:28:15.734Z,20.82
2019-03-27T20:30:46.044Z,19.75
2019-03-27T20:33:15.906Z,22.17
2019-03-27T20:35:50.250Z,28.50
2019-03-27T20:38:32.839Z,20.20
2019-03-27T20:41:02.967Z,20.75
2019-03-27T20:43:33.040Z,24.57
2019-03-27T20:46:03.180Z,23.32
2019-03-27T20:48:33.215Z,28.32
2019-03-27T20:51:05.119Z,25.27
2019-03-27T20:53:35.129Z,20.60
2019-03-27T20:56:05.107Z,21.65
2019-03-27T20:58:35.234Z,28.27
2019-03-27T21:01:05.664Z,23.83
2019-03-27T21:03:38.884Z,22.52
2019-03-27T21:06:08.721Z,21.33
2019-03-27T21:08:42.429Z,22.30
2019-03-27T21:11:12.596Z,18.57
2019-03-27T21:13:43.280Z,32.48
2019-03-27T21:16:17.783Z,20.60
2019-03-27T21:18:48.035Z,25.10
2019-03-27T21:21:18.086Z,25.55
2019-03-27T21:23:48.600Z,31.62
2019-03-27T21:26:18.900Z,53.40
2019-03-27T21:28:48.695Z,34.58
2019-03-27T21:31:18.926Z,25.40
2019-03-27T21:33:48.872Z,18.27
2019-03-27T21:36:18.865Z,23.07
2019-03-27T21:38:50.034Z,20.60
2019-03-27T21:41:21.583Z,18.02
2019-03-27T21:43:51.478Z,18.32
2019-03-27T21:46:21.574Z,18.02
2019-03-27T21:48:51.482Z,18.65
2019-03-27T21:51:21.583Z,20.08
2019-03-27T21:53:51.487Z,18.75
2019-03-27T21:56:21.487Z,22.22
2019-03-27T21:58:51.268Z,18.70
2019-03-27T22:01:21.368Z,17.82
2019-03-27T22:03:51.349Z,17.75
2019-03-27T22:06:21.198Z,19.92
2019-03-27T22:08:54.343Z,16.10
2019-03-27T22:11:25.988Z,20.50
2019-03-27T22:13:58.227Z,26.05
2019-03-27T22:16:28.170Z,20.30
2019-03-27T22:18:59.570Z,22.65
2019-03-27T22:21:29.577Z,21.53
2019-03-27T22:24:08.540Z,26.17
2019-03-27T22:26:41.334Z,20.95
2019-03-27T22:29:18.457Z,19.55
2019-03-27T22:31:54.379Z,28.05
2019-03-27T22:34:29.712Z,19.77
2019-03-27T22:37:03.706Z,20.68
2019-03-27T22:39:33.596Z,19.32
2019-03-27T22:42:11.913Z,30.30
2019-03-27T22:44:43.280Z,24.00
2019-03-27T22:47:35.585Z,30.83
2019-03-27T22:50:08.857Z,72.92
2019-03-27T22:52:52.783Z,46.37
2019-03-27T22:55:49.559Z,135.20
2019-03-27T22:58:23.522Z,102.40
2019-03-27T23:01:13.873Z,51.50
2019-03-27T23:03:48.579Z,89.37
2019-03-27T23:06:28.307Z,25.95
2019-03-27T23:08:58.237Z,23.55
2019-03-27T23:11:47.094Z,30.85
2019-03-27T23:14:29.630Z,24.80
2019-03-27T23:17:04.376Z,29.18
2019-03-27T23:19:34.839Z,32.55
2019-03-27T23:22:06.091Z,34.90
2019-03-27T23:24:42.954Z,36.23
2019-03-27T23:27:14.352Z,29.98
2019-03-27T23:29:45.537Z,34.83
2019-03-27T23:32:17.957Z,31.55
2019-03-27T23:34:54.139Z,34.78
2019-03-27T23:37:30.206Z,30.08
2019-03-27T23:40:00.096Z,30.43
2019-03-27T23:42:31.790Z,36.00
2019-03-27T23:45:02.377Z,40.63
2019-03-27T23:47:49.016Z,31.62
2019-03-27T23:50:20.739Z,29.60
2019-03-27T23:52:50.546Z,29.70
2019-03-27T23:55:29.287Z,30.77
2019-03-27T23:58:22.414Z,34.23
